Time;durP1;ratioP1;P1;durP2;ratioP2;P2;SDS_P1;SDS_P2;PMS_P1;PMS_P2;Temp;Humidity;BMP_temperature;BMP_pressure;BME280_temperature;BME280_humidity;BME280_pressure;Samples;Min_cycle;Max_cycle;Signal;HPM_P1;HPM_P2
2024/02/08 00:00:12;;;;;;;;;;;13.50;99.90;;;;;;4269016;27;20485;-74
2024/02/08 00:02:14;;;;;;;7.28;3.10;;;13.40;99.90;;;;;;4251474;27;19949;-75
2024/02/08 00:04:16;;;;;;;3.20;2.67;;;13.40;99.90;;;;;;4269206;27;20054;-74
2024/02/08 00:06:20;;;;;;;4.00;2.80;;;13.40;99.90;;;;;;4268120;27;20050;-74
2024/02/08 00:08:22;;;;;;;3.35;3.03;;;13.40;99.90;;;;;;4267634;27;20202;-74
2024/02/08 00:10:24;;;;;;;5.13;3.08;;;13.40;99.90;;;;;;4267563;27;20485;-75
2024/02/08 00:12:26;;;;;;;6.05;3.45;;;13.40;99.90;;;;;;4267653;27;20082;-75
2024/02/08 00:14:28;;;;;;;4.32;2.65;;;13.40;99.90;;;;;;4249362;27;20043;-72
2024/02/08 00:16:30;;;;;;;3.60;2.65;;;13.40;99.90;;;;;;4267846;27;20051;-75
2024/02/08 00:18:36;;;;;;;4.10;2.60;;;13.40;99.90;;;;;;4267871;27;20520;-74
2024/02/08 00:20:38;;;;;;;2.60;2.30;;;13.40;99.90;;;;;;4268983;27;20051;-74
2024/02/08 00:22:43;;;;;;;2.95;2.33;;;13.50;99.90;;;;;;4271478;27;20039;-73
2024/02/08 00:24:46;;;;;;;3.55;2.85;;;13.50;99.90;;;;;;4271445;27;20042;-75
2024/02/08 00:26:48;;;;;;;4.05;2.70;;;13.40;99.90;;;;;;4253313;27;20043;-74
2024/02/08 00:28:50;;;;;;;2.38;2.10;;;13.50;99.90;;;;;;4252051;27;20096;-74
2024/02/08 00:30:53;;;;;;;3.40;2.20;;;13.50;99.90;;;;;;4269791;27;20038;-74
2024/02/08 00:32:56;;;;;;;3.60;2.28;;;13.50;99.90;;;;;;4268996;27;20154;-75
2024/02/08 00:35:03;;;;;;;3.10;2.20;;;13.50;99.90;;;;;;4249656;27;20054;-72
2024/02/08 00:37:11;;;;;;;2.55;2.05;;;13.50;99.90;;;;;;4268130;27;20079;-75
2024/02/08 00:39:15;;;;;;;2.20;1.80;;;13.60;99.90;;;;;;4271239;27;20042;-79
2024/02/08 00:41:17;;;;;;;6.28;2.28;;;13.50;99.90;;;;;;4271588;27;20076;-74
2024/02/08 00:43:19;;;;;;;3.40;2.10;;;13.50;99.90;;;;;;4270795;27;20382;-72
2024/02/08 00:45:22;;;;;;;2.40;1.58;;;13.50;99.90;;;;;;4269534;27;20091;-75
2024/02/08 00:47:25;;;;;;;3.47;2.03;;;13.50;99.90;;;;;;4270335;27;20042;-75
2024/02/08 00:49:27;;;;;;;3.60;1.67;;;13.50;99.90;;;;;;4267693;27;20070;-74
2024/02/08 00:51:31;;;;;;;2.80;1.90;;;13.60;99.90;;;;;;4268136;27;20043;-77
2024/02/08 00:53:33;;;;;;;3.03;2.00;;;13.50;99.90;;;;;;4268061;27;20382;-78
2024/02/08 00:55:43;;;;;;;2.10;1.90;;;13.50;99.90;;;;;;4267050;27;20070;-75
2024/02/08 00:57:46;;;;;;;3.00;1.92;;;13.60;99.90;;;;;;4267294;27;20043;-74
2024/02/08 00:59:48;;;;;;;3.30;1.77;;;13.50;99.90;;;;;;4248852;27;20043;-74
2024/02/08 01:01:50;;;;;;;3.55;2.53;;;13.50;99.90;;;;;;4267031;27;20505;-74
2024/02/08 01:03:52;;;;;;;4.30;2.00;;;13.50;99.90;;;;;;4266722;27;20047;-74
2024/02/08 01:05:55;;;;;;;8.38;1.33;;;13.50;99.90;;;;;;4266499;27;20046;-74
2024/02/08 01:07:57;;;;;;;1.73;1.50;;;13.50;99.90;;;;;;4267227;27;20506;-74
2024/02/08 01:10:00;;;;;;;3.08;1.52;;;13.50;99.90;;;;;;4267176;27;20042;-75
2024/02/08 01:12:04;;;;;;;2.65;1.83;;;13.50;99.90;;;;;;4266964;27;20046;-75
2024/02/08 01:14:06;;;;;;;2.80;1.85;;;13.50;99.90;;;;;;4266627;27;20118;-77
2024/02/08 01:16:11;;;;;;;2.17;1.45;;;13.50;99.90;;;;;;4267863;27;20039;-75
2024/02/08 01:18:13;;;;;;;2.33;1.40;;;13.50;99.90;;;;;;4269002;27;20442;-75
2024/02/08 01:20:21;;;;;;;3.10;1.40;;;13.50;99.90;;;;;;4267694;27;20042;-75
2024/02/08 01:22:23;;;;;;;2.50;1.60;;;13.50;99.90;;;;;;4267856;27;20050;-74
2024/02/08 01:24:28;;;;;;;1.30;1.20;;;13.40;99.90;;;;;;4267821;27;20068;-77
2024/02/08 01:26:31;;;;;;;2.63;1.48;;;13.50;99.90;;;;;;4267565;27;20047;-74
2024/02/08 01:28:35;;;;;;;3.08;1.60;;;13.50;99.90;;;;;;4267656;27;20049;-75
2024/02/08 01:30:38;;;;;;;3.75;1.42;;;13.50;99.90;;;;;;4267130;27;20046;-74
2024/02/08 01:32:42;;;;;;;4.57;1.30;;;13.50;99.90;;;;;;4268018;27;20052;-74
2024/02/08 01:34:44;;;;;;;2.53;1.77;;;13.40;99.90;;;;;;4249627;27;20043;-74
2024/02/08 01:36:49;;;;;;;4.15;1.55;;;13.40;99.90;;;;;;4248756;27;20047;-74
2024/02/08 01:38:51;;;;;;;1.63;1.50;;;13.50;99.90;;;;;;4267138;27;20077;-74
2024/02/08 01:40:55;;;;;;;3.15;1.40;;;13.50;99.90;;;;;;4266280;27;20043;-74
2024/02/08 01:42:57;;;;;;;4.65;1.52;;;13.50;99.90;;;;;;4267705;27;20133;-75
2024/02/08 01:45:33;;;;;;;1.50;1.25;;;13.50;99.90;;;;;;4268125;27;20067;-74
2024/02/08 01:47:36;;;;;;;1.48;1.38;;;13.50;99.90;;;;;;4266819;27;20046;-74
2024/02/08 01:49:38;;;;;;;1.40;1.30;;;13.40;99.90;;;;;;4266253;27;20452;-74
2024/02/08 01:51:41;;;;;;;1.55;1.45;;;13.50;99.90;;;;;;4265740;27;20073;-74
2024/02/08 01:53:44;;;;;;;1.17;1.08;;;13.40;99.90;;;;;;4266203;27;20065;-75
2024/02/08 01:55:49;;;;;;;1.65;1.55;;;13.50;99.90;;;;;;4266377;27;20065;-76
2024/02/08 01:57:53;;;;;;;2.40;1.20;;;13.40;99.90;;;;;;4267298;27;20073;-78
2024/02/08 01:59:55;;;;;;;1.50;1.13;;;13.50;99.90;;;;;;4266727;27;20043;-75
2024/02/08 02:02:01;;;;;;;1.20;1.10;;;13.50;99.90;;;;;;4266603;27;20047;-76
2024/02/08 02:04:07;;;;;;;3.33;1.75;;;13.50;99.90;;;;;;4268136;27;20049;-74
2024/02/08 02:06:12;;;;;;;1.67;1.45;;;13.50;99.90;;;;;;4268114;27;20049;-75
2024/02/08 02:08:16;;;;;;;4.72;1.13;;;13.50;99.90;;;;;;4269222;27;20099;-74
2024/02/08 02:10:19;;;;;;;5.30;1.25;;;13.40;99.90;;;;;;4271793;27;20122;-77
2024/02/08 02:12:25;;;;;;;2.65;1.10;;;13.50;99.90;;;;;;4272383;27;20117;-75
2024/02/08 02:14:29;;;;;;;1.63;1.25;;;13.50;99.90;;;;;;4271505;27;20055;-79
2024/02/08 02:16:32;;;;;;;2.65;1.55;;;13.50;99.90;;;;;;4271044;27;20055;-75
2024/02/08 02:18:36;;;;;;;3.70;1.25;;;13.50;99.90;;;;;;4270200;27;20047;-74
2024/02/08 02:20:38;;;;;;;3.05;1.60;;;13.40;99.90;;;;;;4267047;27;20462;-75
2024/02/08 02:22:43;;;;;;;6.28;2.42;;;13.40;99.90;;;;;;4267234;27;20501;-75
2024/02/08 02:24:48;;;;;;;1.60;1.30;;;13.40;99.90;;;;;;4268031;27;20043;-75
2024/02/08 02:26:52;;;;;;;2.75;1.27;;;13.40;99.90;;;;;;4267920;27;20047;-76
2024/02/08 02:28:55;;;;;;;2.13;1.45;;;13.40;99.90;;;;;;4266580;27;20581;-75
2024/02/08 02:30:58;;;;;;;4.65;1.33;;;13.40;99.90;;;;;;4248061;27;20055;-75
2024/02/08 02:33:01;;;;;;;2.58;1.20;;;13.40;99.90;;;;;;4267580;27;20047;-75
2024/02/08 02:35:04;;;;;;;3.20;1.65;;;13.50;99.90;;;;;;4265949;27;20122;-76
2024/02/08 02:37:07;;;;;;;1.25;1.15;;;13.40;99.90;;;;;;4266989;27;20063;-76
2024/02/08 02:39:10;;;;;;;1.35;1.25;;;13.40;99.90;;;;;;4270982;27;20046;-77
2024/02/08 02:41:13;;;;;;;1.40;1.30;;;13.40;99.90;;;;;;4270738;27;20450;-75
2024/02/08 02:43:15;;;;;;;2.85;1.45;;;13.40;99.90;;;;;;4270413;27;20051;-76
2024/02/08 02:45:21;;;;;;;2.28;1.27;;;13.40;99.90;;;;;;4271910;27;20050;-75
2024/02/08 02:47:25;;;;;;;3.13;1.30;;;13.40;99.90;;;;;;4269338;27;20115;-75
2024/02/08 02:49:28;;;;;;;1.70;1.40;;;13.50;99.90;;;;;;4269498;27;20129;-75
2024/02/08 02:51:31;;;;;;;1.52;1.42;;;13.40;99.90;;;;;;4251371;27;20493;-76
2024/02/08 02:53:35;;;;;;;1.67;1.42;;;13.40;99.90;;;;;;4269332;27;20055;-74
2024/02/08 02:55:38;;;;;;;5.60;1.60;;;13.40;99.90;;;;;;4270128;27;20397;-75
2024/02/08 02:57:44;;;;;;;3.95;1.58;;;13.40;99.90;;;;;;4271315;27;20049;-77
2024/02/08 02:59:46;;;;;;;2.72;1.40;;;13.40;99.90;;;;;;4270637;27;20066;-75
2024/02/08 03:01:49;;;;;;;2.83;1.48;;;13.30;99.90;;;;;;4270232;27;20050;-75
2024/02/08 03:03:54;;;;;;;6.40;1.83;;;13.30;99.90;;;;;;4270245;27;20451;-75
2024/02/08 03:05:56;;;;;;;1.95;1.40;;;13.40;99.90;;;;;;4270214;27;20050;-74
2024/02/08 03:07:58;;;;;;;1.50;1.40;;;13.40;99.90;;;;;;4270290;27;20047;-78
2024/02/08 03:10:00;;;;;;;1.60;1.48;;;13.40;99.90;;;;;;4270449;27;20069;-75
2024/02/08 03:12:09;;;;;;;4.47;1.30;;;13.40;99.90;;;;;;4271228;27;20046;-75
2024/02/08 03:14:14;;;;;;;1.40;1.30;;;13.40;99.90;;;;;;4271951;27;20122;-76
2024/02/08 03:16:17;;;;;;;2.08;1.38;;;13.40;99.90;;;;;;4269950;27;20579;-75
2024/02/08 03:18:23;;;;;;;1.25;1.15;;;13.40;99.90;;;;;;4268762;27;20050;-75
2024/02/08 03:20:29;;;;;;;1.80;1.13;;;13.40;99.90;;;;;;4268692;27;20093;-75
2024/02/08 03:22:34;;;;;;;2.63;1.17;;;13.40;99.90;;;;;;4270652;27;20069;-75
2024/02/08 03:24:36;;;;;;;2.92;1.02;;;13.40;99.90;;;;;;4270119;27;20103;-75
2024/02/08 03:26:47;;;;;;;0.90;0.90;;;13.30;99.90;;;;;;4274893;27;20053;-76
2024/02/08 03:28:54;;;;;;;3.08;1.27;;;13.30;99.90;;;;;;4273433;27;20065;-76
2024/02/08 03:30:56;;;;;;;0.90;0.80;;;13.30;99.90;;;;;;4270463;27;20062;-76
2024/02/08 03:32:59;;;;;;;4.45;1.40;;;13.40;99.90;;;;;;4269243;27;20055;-77
2024/02/08 03:35:01;;;;;;;1.27;0.98;;;13.30;99.90;;;;;;4270067;27;20054;-75
2024/02/08 03:37:06;;;;;;;2.83;1.05;;;13.30;99.90;;;;;;4269914;27;20189;-74
2024/02/08 03:39:13;;;;;;;2.50;1.25;;;13.30;99.90;;;;;;4269005;27;20042;-75
2024/02/08 03:41:17;;;;;;;1.52;1.10;;;13.30;99.90;;;;;;4268802;27;20122;-75
2024/02/08 03:43:23;;;;;;;1.17;1.08;;;13.30;99.90;;;;;;4268752;27;20524;-75
2024/02/08 03:45:28;;;;;;;1.88;1.10;;;13.30;99.90;;;;;;4270070;27;20154;-75
2024/02/08 03:47:32;;;;;;;1.00;0.90;;;13.30;99.90;;;;;;4269868;27;20088;-75
2024/02/08 03:49:35;;;;;;;1.50;1.08;;;13.30;99.90;;;;;;4269104;27;20134;-74
2024/02/08 03:51:37;;;;;;;2.97;1.23;;;13.40;99.90;;;;;;4268219;27;20051;-75
2024/02/08 03:53:40;;;;;;;0.93;0.90;;;13.40;99.90;;;;;;4268361;27;20055;-74
2024/02/08 03:55:43;;;;;;;1.13;0.90;;;13.30;99.90;;;;;;4268398;27;20043;-76
2024/02/08 03:57:48;;;;;;;1.33;0.80;;;13.30;99.90;;;;;;4268237;27;20450;-73
2024/02/08 03:59:52;;;;;;;2.60;0.95;;;13.30;99.90;;;;;;4271211;27;20046;-73
2024/02/08 04:02:09;;;;;;;5.65;0.77;;;13.30;99.90;;;;;;4271887;27;20047;-74
2024/02/08 04:04:16;;;;;;;0.85;0.85;;;13.30;99.90;;;;;;4271841;27;20042;-74
2024/02/08 04:06:37;;;;;;;0.75;0.70;;;13.30;99.90;;;;;;4271669;27;20042;-75
2024/02/08 04:53:37;;;;;;;1.52;0.47;;;13.20;99.90;;;;;;4164859;28;20045;-75
2024/02/08 04:55:39;;;;;;;0.75;0.38;;;13.20;99.90;;;;;;4163949;28;20045;-75
2024/02/08 04:57:43;;;;;;;1.48;0.45;;;13.20;99.90;;;;;;4164433;28;20067;-75
2024/02/08 04:59:45;;;;;;;2.15;0.65;;;13.30;99.90;;;;;;4163402;28;20080;-74
2024/02/08 05:01:49;;;;;;;0.63;0.40;;;13.20;99.90;;;;;;4163671;28;20049;-73
2024/02/08 05:03:52;;;;;;;0.57;0.40;;;13.20;99.90;;;;;;4163721;28;20045;-74
2024/02/08 05:05:55;;;;;;;1.30;0.30;;;13.20;99.90;;;;;;4214985;28;20054;-73
2024/02/08 05:08:01;;;;;;;1.27;0.57;;;13.20;99.90;;;;;;4248151;28;20058;-74
2024/02/08 05:10:03;;;;;;;1.17;0.28;;;13.20;99.90;;;;;;4248444;28;20126;-73
2024/02/08 05:12:07;;;;;;;0.50;0.30;;;13.20;99.90;;;;;;4248647;28;20075;-73
2024/02/08 05:14:09;;;;;;;0.60;0.22;;;13.30;99.90;;;;;;4248163;28;20043;-73
2024/02/08 05:16:14;;;;;;;3.75;0.43;;;13.30;99.90;;;;;;4230416;28;20056;-71
2024/02/08 05:18:16;;;;;;;0.45;0.40;;;13.30;99.90;;;;;;4249310;28;20104;-75
2024/02/08 05:20:19;;;;;;;0.98;0.50;;;13.30;99.90;;;;;;4249947;28;20039;-74
2024/02/08 05:22:22;;;;;;;1.15;0.30;;;13.30;99.90;;;;;;4249099;28;20086;-76
2024/02/08 05:24:30;;;;;;;2.33;0.40;;;13.30;99.90;;;;;;4250366;27;20046;-74
2024/02/08 05:26:32;;;;;;;1.38;0.52;;;13.30;99.90;;;;;;4249660;28;20078;-74
2024/02/08 05:28:35;;;;;;;0.82;0.25;;;13.30;99.90;;;;;;4249990;27;20043;-76
2024/02/08 05:30:39;;;;;;;3.10;0.40;;;13.30;99.90;;;;;;4250385;27;20069;-74
2024/02/08 05:32:43;;;;;;;3.30;0.50;;;13.40;99.90;;;;;;4249906;27;20046;-74
2024/02/08 05:34:45;;;;;;;1.60;0.43;;;13.40;99.90;;;;;;4249221;28;20558;-74
2024/02/08 05:36:49;;;;;;;1.08;0.22;;;13.40;99.90;;;;;;4239215;28;20498;-74
2024/02/08 05:38:56;;;;;;;2.53;0.50;;;13.40;99.90;;;;;;4265576;27;20065;-74
2024/02/08 05:41:00;;;;;;;2.00;0.32;;;13.40;99.90;;;;;;4265760;27;20494;-75
2024/02/08 05:43:03;;;;;;;2.13;0.47;;;13.40;99.90;;;;;;4247283;27;20609;-74
2024/02/08 05:45:23;;;;;;;2.45;0.50;;;13.40;99.90;;;;;;4265616;27;20482;-74
2024/02/08 05:47:26;;;;;;;1.00;0.40;;;13.40;99.90;;;;;;4265576;27;20051;-72
2024/02/08 05:49:30;;;;;;;2.28;0.57;;;13.40;99.90;;;;;;4265546;27;20115;-74
2024/02/08 05:51:35;;;;;;;1.48;0.43;;;13.50;99.90;;;;;;4269175;27;20042;-74
2024/02/08 05:53:40;;;;;;;3.03;0.68;;;13.40;99.90;;;;;;4267908;27;20046;-74
2024/02/08 05:55:47;;;;;;;1.48;0.55;;;13.40;99.90;;;;;;4269718;27;20130;-74
2024/02/08 05:57:52;;;;;;;1.20;0.43;;;13.50;99.90;;;;;;4269596;27;20039;-74
2024/02/08 06:00:00;;;;;;;1.65;0.70;;;13.50;99.90;;;;;;4268654;27;20867;-74
2024/02/08 06:02:13;;;;;;;3.75;0.68;;;13.50;99.90;;;;;;4267820;27;20047;-73
2024/02/08 06:04:24;;;;;;;1.80;0.50;;;13.50;99.90;;;;;;4267365;27;20070;-74
2024/02/08 06:06:33;;;;;;;3.53;0.73;;;13.50;99.90;;;;;;4267354;27;20046;-74
2024/02/08 06:08:39;;;;;;;2.30;0.50;;;13.50;99.90;;;;;;4267266;27;20091;-75
2024/02/08 06:10:42;;;;;;;4.35;0.88;;;13.50;99.90;;;;;;4267525;27;20050;-75
2024/02/08 06:12:46;;;;;;;2.63;1.00;;;13.50;99.90;;;;;;4268315;27;20062;-74
2024/02/08 06:14:57;;;;;;;6.35;0.80;;;13.50;99.90;;;;;;4270266;27;20053;-74
2024/02/08 06:17:06;;;;;;;2.70;0.88;;;13.50;99.90;;;;;;4268448;27;20046;-74
2024/02/08 06:19:08;;;;;;;4.22;1.13;;;13.50;99.90;;;;;;4269813;27;20134;-77
2024/02/08 06:21:13;;;;;;;3.20;0.98;;;13.50;99.90;;;;;;4269590;27;20043;-75
2024/02/08 06:23:16;;;;;;;3.63;0.95;;;13.50;99.90;;;;;;4268574;27;20051;-73
2024/02/08 06:25:31;;;;;;;;;;;13.50;99.90;;;;;;4268823;27;20043;-76
2024/02/08 06:27:36;;;;;;;5.18;1.05;;;13.50;99.90;;;;;;4268570;27;19919;-74
2024/02/08 06:29:42;;;;;;;3.83;1.67;;;13.40;99.90;;;;;;4268868;27;20134;-74
2024/02/08 06:31:50;;;;;;;4.55;1.02;;;13.40;99.90;;;;;;4269820;27;20043;-74
2024/02/08 06:34:10;;;;;;;6.30;1.92;;;13.40;99.90;;;;;;4268269;27;20081;-74
2024/02/08 06:36:13;;;;;;;7.78;2.00;;;13.40;99.90;;;;;;4267032;27;20047;-74
2024/02/08 06:38:28;;;;;;;6.93;1.92;;;13.40;99.90;;;;;;4266975;27;20477;-74
2024/02/08 06:45:44;;;;;;;16.98;3.13;;;13.40;99.90;;;;;;4182531;28;20165;-74
2024/02/08 06:47:56;;;;;;;16.05;3.92;;;13.40;99.90;;;;;;4185545;28;20053;-75
2024/02/08 07:37:36;;;;;;;45.83;9.07;;;13.40;99.90;;;;;;4204127;28;20128;-76
2024/02/08 07:39:46;;;;;;;49.92;9.50;;;13.30;99.90;;;;;;4205215;28;20040;-74
2024/02/08 07:41:54;;;;;;;41.42;9.07;;;13.30;99.90;;;;;;4187820;28;20060;-75
2024/02/08 07:43:56;;;;;;;41.70;9.10;;;13.20;99.90;;;;;;4204096;28;20088;-73
2024/02/08 07:46:04;;;;;;;51.55;9.90;;;13.30;99.90;;;;;;4203733;28;20064;-73
2024/02/08 07:48:10;;;;;;;50.15;10.98;;;13.30;99.90;;;;;;4187908;28;20555;-74
2024/02/08 07:50:12;;;;;;;41.22;9.15;;;13.30;99.90;;;;;;4201274;28;20063;-73
2024/02/08 07:52:19;;;;;;;45.58;9.27;;;13.30;99.90;;;;;;4183541;28;20055;-74
2024/02/08 07:54:30;;;;;;;40.47;9.98;;;13.30;99.90;;;;;;4225249;28;20094;-74
2024/02/08 07:56:46;;;;;;;51.50;10.30;;;13.30;99.90;;;;;;4236144;28;20500;-74
2024/02/08 07:58:49;;;;;;;48.25;9.73;;;13.30;99.90;;;;;;4237741;28;20043;-74
2024/02/08 08:00:56;;;;;;;49.97;9.98;;;13.40;99.90;;;;;;4238190;28;20605;-75
2024/02/08 08:03:09;;;;;;;44.70;9.88;;;13.40;99.90;;;;;;4236450;28;20474;-75
2024/02/08 08:05:23;;;;;;;55.65;10.50;;;13.40;99.90;;;;;;4236163;28;20050;-73
2024/02/08 08:07:34;;;;;;;38.03;9.23;;;13.50;99.90;;;;;;4234683;28;20075;-74
2024/02/08 08:09:46;;;;;;;42.25;8.90;;;13.40;99.90;;;;;;4248512;27;20049;-74
2024/02/08 08:11:51;;;;;;;54.10;10.52;;;13.50;99.90;;;;;;4271204;27;20042;-73
2024/02/08 08:16:35;;;;;;;49.67;9.55;;;13.50;99.90;;;;;;4270575;27;20042;-73
2024/02/08 08:18:29;;;;;;;43.63;9.57;;;13.50;99.90;;;;;;4271355;27;20054;-74
2024/02/08 08:22:58;;;;;;;52.25;9.85;;;13.50;99.90;;;;;;4270178;27;20053;-74
2024/02/08 08:27:32;;;;;;;43.92;9.98;;;13.50;99.90;;;;;;4272642;27;20049;-75
2024/02/08 08:29:42;;;;;;;42.10;10.50;;;13.60;99.90;;;;;;4272139;27;20055;-75
2024/02/08 08:31:51;;;;;;;58.50;10.63;;;13.50;99.90;;;;;;4265149;27;20050;-76
2024/02/08 08:34:00;;;;;;;50.17;10.75;;;13.50;99.90;;;;;;4252697;27;20542;-75
2024/02/08 08:36:05;;;;;;;53.15;10.38;;;13.50;99.90;;;;;;4251827;27;20043;-74
2024/02/08 08:40:37;;;;;;;61.75;11.48;;;13.50;99.90;;;;;;4252531;27;20057;-75
2024/02/08 08:42:42;;;;;;;59.88;11.73;;;13.50;99.90;;;;;;4252441;27;20081;-76
2024/02/08 08:44:56;;;;;;;45.97;10.70;;;13.40;99.90;;;;;;4253081;27;20054;-76
2024/02/08 08:47:00;;;;;;;71.22;12.38;;;13.50;99.90;;;;;;4250158;27;20067;-68
2024/02/08 08:49:03;;;;;;;57.90;12.00;;;13.50;99.90;;;;;;4237299;27;20368;-68
2024/02/08 08:51:12;;;;;;;49.30;9.98;;;13.50;99.90;;;;;;4248222;27;20062;-69
2024/02/08 08:53:19;;;;;;;51.03;10.80;;;13.50;99.90;;;;;;4251637;27;20486;-75
2024/02/08 08:55:22;;;;;;;64.35;11.65;;;13.50;99.90;;;;;;4250458;27;20046;-68
2024/02/08 08:57:26;;;;;;;48.25;9.52;;;13.50;99.90;;;;;;4249803;27;20092;-67
2024/02/08 08:59:29;;;;;;;46.25;10.38;;;13.50;99.90;;;;;;4248725;27;20066;-68
2024/02/08 09:01:36;;;;;;;49.35;9.80;;;13.50;99.90;;;;;;4249133;27;20066;-67
2024/02/08 09:03:39;;;;;;;46.47;11.40;;;13.50;99.90;;;;;;4249074;27;20542;-68
2024/02/08 09:05:43;;;;;;;51.25;9.52;;;13.50;99.90;;;;;;4262589;27;20055;-63
2024/02/08 09:07:46;;;;;;;47.70;10.93;;;13.50;99.90;;;;;;4265776;27;20096;-65
2024/02/08 09:10:04;;;;;;;48.53;9.88;;;13.50;99.90;;;;;;4247605;27;20043;-65
2024/02/08 09:12:07;;;;;;;57.85;11.20;;;13.40;99.90;;;;;;4266761;27;20047;-64
2024/02/08 09:14:16;;;;;;;49.33;10.20;;;13.40;99.90;;;;;;4266475;27;20070;-64
2024/02/08 09:20:48;;;;;;;49.15;9.90;;;13.30;99.90;;;;;;4266085;27;20130;-65
2024/02/08 09:22:52;;;;;;;48.63;9.88;;;13.30;99.90;;;;;;4266361;27;20050;-65
2024/02/08 09:24:56;;;;;;;51.75;10.52;;;13.30;99.90;;;;;;4266060;27;20050;-68
2024/02/08 09:27:15;;;;;;;51.85;11.07;;;13.30;99.90;;;;;;4265935;27;20087;-67
2024/02/08 09:29:25;;;;;;;57.22;10.70;;;13.30;99.90;;;;;;4267386;27;20531;-65
2024/02/08 09:31:38;;;;;;;51.72;11.15;;;13.30;99.90;;;;;;4270359;27;20043;-65
2024/02/08 09:34:00;;;;;;;48.15;10.73;;;13.30;99.90;;;;;;4271201;27;20046;-66
2024/02/08 09:36:04;;;;;;;43.97;10.15;;;13.30;99.90;;;;;;4271228;27;20039;-64
2024/02/08 09:38:06;;;;;;;57.10;10.52;;;13.30;99.90;;;;;;4268914;27;20406;-65
2024/02/08 09:40:18;;;;;;;47.67;10.68;;;13.30;99.90;;;;;;4268108;27;20043;-66
2024/02/08 09:42:26;;;;;;;44.97;12.52;;;13.20;99.90;;;;;;4267131;27;20115;-68
2024/02/08 09:44:36;;;;;;;41.22;8.77;;;13.30;99.90;;;;;;4267822;27;20129;-66
2024/02/08 09:48:47;;;;;;;42.70;9.75;;;13.20;99.90;;;;;;4265987;27;20035;-65
2024/02/08 09:50:53;;;;;;;36.92;8.13;;;13.20;99.90;;;;;;4265653;27;20122;-68
2024/02/08 09:53:06;;;;;;;41.88;8.45;;;13.10;99.90;;;;;;4265758;27;20050;-65
2024/02/08 09:55:18;;;;;;;36.63;8.15;;;13.10;99.90;;;;;;4265834;27;20383;-63
2024/02/08 09:57:21;;;;;;;38.38;8.05;;;13.10;99.90;;;;;;4265774;27;20073;-66
2024/02/08 09:59:58;;;;;;;38.95;8.25;;;13.10;99.90;;;;;;4265523;27;20049;-66
2024/02/08 10:01:58;;;;;;;33.53;7.68;;;13.10;99.90;;;;;;4264029;27;20122;-66
2024/02/08 10:04:15;;;;;;;40.40;8.27;;;13.00;99.90;;;;;;4248056;27;20393;-68
2024/02/08 10:06:38;;;;;;;33.67;7.63;;;13.10;99.90;;;;;;4261203;27;20072;-67
2024/02/08 10:08:54;;;;;;;37.50;8.02;;;13.10;99.90;;;;;;4261838;27;20038;-67
2024/02/08 10:11:36;;;;;;;29.58;7.85;;;13.00;99.90;;;;;;4245130;27;20039;-70
2024/02/08 10:13:51;;;;;;;29.33;7.10;;;13.10;99.90;;;;;;4251314;27;20078;-66
2024/02/08 10:16:03;;;;;;;34.92;7.90;;;13.00;99.90;;;;;;4247698;27;20065;-66
2024/02/08 10:18:10;;;;;;;37.72;8.25;;;13.00;99.90;;;;;;4264004;27;20072;-66
2024/02/08 10:20:32;;;;;;;28.50;7.18;;;13.10;99.90;;;;;;4264892;27;20039;-65
2024/02/08 10:22:34;;;;;;;32.63;7.78;;;13.10;99.90;;;;;;4262463;27;20058;-67
2024/02/08 10:26:50;;;;;;;34.13;7.50;;;13.20;99.90;;;;;;4258756;27;20063;-68
2024/02/08 10:28:55;;;;;;;31.40;7.68;;;13.20;99.90;;;;;;4257358;27;20048;-68
2024/02/08 10:30:59;;;;;;;36.58;8.00;;;13.30;99.90;;;;;;4253987;27;20074;-67
2024/02/08 10:33:04;;;;;;;29.17;7.90;;;13.40;99.90;;;;;;4258265;27;20043;-67
2024/02/08 10:35:19;;;;;;;34.17;7.20;;;13.40;99.90;;;;;;4261216;27;20114;-68
2024/02/08 10:39:59;;;;;;;39.45;7.68;;;13.50;99.90;;;;;;4265116;27;20455;-68
2024/02/08 10:42:03;;;;;;;27.42;7.57;;;13.50;99.90;;;;;;4258836;27;20043;-68
2024/02/08 10:44:06;;;;;;;29.73;6.75;;;13.50;99.90;;;;;;4250366;27;20043;-65
2024/02/08 10:46:16;;;;;;;35.17;7.35;;;13.60;99.90;;;;;;4252651;27;20043;-65
2024/02/08 10:48:21;;;;;;;40.70;8.13;;;13.60;99.90;;;;;;4255964;27;20039;-65
2024/02/08 10:50:27;;;;;;;;;;;13.70;99.90;;;;;;4258934;27;20039;-65
2024/02/08 10:52:33;;;;;;;;;;;13.70;99.90;;;;;;4261549;27;20014;-66
2024/02/08 10:54:42;;;;;;;31.83;8.13;;;13.60;99.90;;;;;;4258125;27;20021;-65
2024/02/08 10:56:47;;;;;;;32.20;7.05;;;13.70;99.90;;;;;;4247533;27;20039;-68
2024/02/08 11:01:32;;;;;;;31.55;7.63;;;13.70;99.90;;;;;;4258791;27;20051;-66
2024/02/08 11:03:43;;;;;;;37.42;7.35;;;13.70;99.90;;;;;;4262638;27;20049;-65
2024/02/08 11:06:00;;;;;;;34.13;8.50;;;13.80;99.90;;;;;;4268164;27;20050;-66
2024/02/08 11:08:13;;;;;;;31.80;8.07;;;13.80;99.90;;;;;;4258020;27;20031;-66
2024/02/08 11:10:23;;;;;;;31.33;7.70;;;13.80;99.90;;;;;;4254174;27;20043;-70
2024/02/08 11:12:29;;;;;;;27.67;7.80;;;13.80;99.90;;;;;;4250030;27;20050;-71
2024/02/08 11:14:40;;;;;;;26.52;7.32;;;13.90;99.90;;;;;;4250051;27;20053;-65
2024/02/08 11:16:47;;;;;;;25.85;6.95;;;13.90;99.90;;;;;;4249646;27;20047;-65
2024/02/08 11:18:54;;;;;;;38.30;8.68;;;13.90;99.90;;;;;;4252427;27;20043;-67
2024/02/08 11:21:12;;;;;;;29.00;8.32;;;13.90;99.90;;;;;;4256176;27;20043;-69
2024/02/08 11:23:23;;;;;;;30.55;7.97;;;13.90;99.90;;;;;;4252187;27;20043;-64
2024/02/08 11:25:35;;;;;;;32.95;7.55;;;14.00;99.90;;;;;;4252371;27;20043;-69
2024/02/08 11:27:38;;;;;;;33.13;7.40;;;14.00;99.90;;;;;;4252915;27;20047;-65
2024/02/08 11:29:47;;;;;;;36.58;7.57;;;14.00;99.90;;;;;;4234134;27;20047;-65
2024/02/08 11:31:50;;;;;;;30.20;7.45;;;14.10;99.90;;;;;;4250975;27;20517;-64
2024/02/08 11:33:55;;;;;;;28.80;7.47;;;14.10;99.90;;;;;;4251282;27;20043;-66
2024/02/08 11:36:11;;;;;;;32.78;7.82;;;14.00;99.90;;;;;;4252780;27;20050;-66
2024/02/08 11:38:26;;;;;;;37.08;8.10;;;14.10;99.90;;;;;;4267968;27;20073;-64
2024/02/08 11:40:36;;;;;;;27.58;7.75;;;14.00;99.90;;;;;;4266723;27;20100;-66
2024/02/08 11:42:42;;;;;;;33.85;9.13;;;14.10;99.90;;;;;;4256335;27;20047;-67
2024/02/08 11:44:45;;;;;;;32.35;7.47;;;14.10;99.90;;;;;;4250367;27;20051;-65
2024/02/08 11:46:51;;;;;;;28.98;7.65;;;14.20;99.90;;;;;;4250290;27;20072;-68
2024/02/08 11:49:10;;;;;;;28.63;7.68;;;14.10;99.90;;;;;;4250302;27;20478;-65
2024/02/08 11:51:15;;;;;;;24.70;7.90;;;14.10;99.90;;;;;;4252763;27;20043;-67
2024/02/08 11:53:31;;;;;;;27.83;6.80;;;14.10;99.90;;;;;;4253882;27;20042;-65
2024/02/08 11:55:36;;;;;;;27.52;7.35;;;14.20;99.90;;;;;;4250098;27;20095;-66
2024/02/08 11:57:40;;;;;;;29.75;7.70;;;14.20;99.90;;;;;;4248936;27;20061;-68
2024/02/08 11:59:44;;;;;;;28.35;6.95;;;14.30;99.90;;;;;;4249540;27;20481;-65
2024/02/08 12:01:48;;;;;;;40.08;8.07;;;14.30;99.90;;;;;;4248159;27;20050;-66
2024/02/08 12:03:53;;;;;;;31.80;7.50;;;14.20;99.90;;;;;;4248747;27;20043;-65
2024/02/08 12:05:57;;;;;;;30.70;8.90;;;14.30;99.90;;;;;;4262784;27;20050;-65
2024/02/08 12:08:11;;;;;;;32.85;7.85;;;14.30;99.90;;;;;;4266277;27;20541;-70
2024/02/08 12:10:15;;;;;;;35.75;8.07;;;14.40;99.90;;;;;;4256102;27;20048;-63
2024/02/08 12:12:19;;;;;;;29.05;7.60;;;14.40;99.90;;;;;;4255479;27;20553;-66
2024/02/08 12:14:26;;;;;;;35.07;8.53;;;14.30;99.90;;;;;;4253325;27;20066;-68
2024/02/08 12:16:29;;;;;;;29.73;7.97;;;14.30;99.90;;;;;;4256101;27;20043;-66
2024/02/08 12:18:32;;;;;;;25.52;8.00;;;14.40;99.90;;;;;;4255186;27;20812;-65
2024/02/08 12:20:36;;;;;;;31.02;6.95;;;14.40;99.90;;;;;;4257622;27;20816;-65
2024/02/08 12:22:41;;;;;;;35.95;8.00;;;14.50;99.90;;;;;;4260027;27;20121;-65
2024/02/08 12:24:45;;;;;;;29.10;7.32;;;14.50;99.90;;;;;;4254659;27;20410;-65
2024/02/08 12:26:53;;;;;;;30.60;6.80;;;14.50;99.90;;;;;;4256763;27;20062;-63
2024/02/08 12:29:02;;;;;;;33.47;7.68;;;14.50;99.90;;;;;;4257878;27;20043;-64
2024/02/08 12:31:16;;;;;;;32.88;7.03;;;14.50;99.90;;;;;;4255740;27;20478;-65
2024/02/08 12:33:21;;;;;;;36.17;8.15;;;14.50;99.90;;;;;;4256760;27;20074;-65
2024/02/08 12:35:28;;;;;;;29.23;7.47;;;14.40;99.90;;;;;;4255734;27;20043;-63
2024/02/08 12:37:31;;;;;;;31.35;8.65;;;14.40;99.90;;;;;;4256056;27;20062;-65
2024/02/08 12:39:38;;;;;;;52.00;14.35;;;14.40;99.90;;;;;;4266359;27;20053;-65
2024/02/08 12:41:43;;;;;;;39.33;9.20;;;14.40;99.90;;;;;;4262836;27;20042;-65
2024/02/08 12:43:49;;;;;;;39.08;11.57;;;14.40;99.90;;;;;;4259226;27;20726;-68
2024/02/08 12:45:53;;;;;;;27.52;8.25;;;14.50;99.90;;;;;;4265808;27;20057;-68
2024/02/08 12:47:57;;;;;;;33.60;8.27;;;14.50;99.90;;;;;;4255967;27;20046;-65
2024/02/08 12:49:59;;;;;;;26.27;7.45;;;14.50;99.90;;;;;;4265765;27;20129;-65
2024/02/08 12:52:16;;;;;;;27.23;7.53;;;14.50;99.90;;;;;;4263974;27;20042;-65
2024/02/08 12:54:19;;;;;;;30.13;7.13;;;14.50;99.90;;;;;;4265319;27;20489;-71